.
WxDataArchive / Data Records for 2011-02-05
2011-02-04 February 2011 2011-02-06

Data Records for Saturday, 05 February 2011

Time	Temp	Chill	HIndex	Humid	Dewpt	 Wind 	HiWind	WindDir	Rain 	Barom 
-----	----	-----	------	-----	-----	------	------	-------	-----	----- 
00:00	13.8	13.8	13.8	69	5.5	0	0	---	0.00	29.968 
00:05	13.6	13.6	13.6	69	5.4	0	0	---	0.00	29.968 
00:10	13.5	13.5	13.5	69	5.3	0	0	---	0.00	29.968 
00:15	13.3	13.3	13.3	69	5.1	0	0	---	0.00	29.961 
00:20	13.1	13.1	13.1	70	5.2	0	0	---	0.00	29.961 
00:25	13.1	13.1	13.1	71	5.5	0	0	---	0.00	29.961 
00:30	13.1	13.1	13.1	71	5.5	0	0	---	0.00	29.954 
00:35	13.3	13.3	13.3	72	6.0	0	0	---	0.00	29.954 
00:40	13.3	13.3	13.3	72	6.0	0	0	---	0.00	29.954 
00:45	13.5	13.5	13.5	72	6.2	0	0	---	0.00	29.943 
00:50	13.8	13.8	13.8	72	6.5	0	0	---	0.00	29.943 
00:55	14.1	14.1	14.1	72	6.8	0	0	---	0.00	29.943 
01:00	14.3	14.3	14.3	72	7.0	0	0	---	0.00	29.937 
01:05	14.3	14.3	14.3	71	6.6	0	0	---	0.00	29.937 
01:10	14.4	14.4	14.4	71	6.7	0	1	248	0.00	29.937 
01:15	14.6	14.6	14.6	71	6.9	0	0	---	0.00	29.920 
01:20	14.9	14.9	14.9	71	7.2	0	0	---	0.00	29.920 
01:25	15.1	15.1	15.1	71	7.4	0	0	---	0.00	29.920 
01:30	15.1	15.1	15.1	70	7.1	0	0	---	0.00	29.918 
01:35	15.1	15.1	15.1	70	7.1	0	0	---	0.00	29.918 
01:40	14.8	14.8	14.8	71	7.1	0	0	---	0.00	29.918 
01:45	14.6	14.6	14.6	71	6.9	0	0	---	0.00	29.906 
01:50	14.1	14.1	14.1	71	6.5	0	0	---	0.00	29.906 
01:55	14.0	14.0	14.0	71	6.4	0	0	---	0.00	29.906 
02:00	13.5	13.5	13.5	72	6.2	0	0	---	0.00	29.905 
02:05	13.1	13.1	13.1	72	5.8	0	0	---	0.00	29.905 
02:10	12.9	12.9	12.9	73	5.9	0	0	---	0.00	29.905 
02:15	12.6	12.6	12.6	73	5.6	0	0	---	0.00	29.905 
02:20	12.4	12.4	12.4	74	5.7	0	0	---	0.00	29.905 
02:25	12.3	12.3	12.3	75	5.9	0	0	---	0.00	29.905 
02:30	12.3	12.3	12.3	76	6.2	0	0	---	0.00	29.901 
02:35	12.3	12.3	12.3	75	5.9	0	0	---	0.00	29.901 
02:40	12.1	12.1	12.1	75	5.7	0	0	---	0.00	29.901 
02:45	11.7	11.7	11.7	75	5.3	0	0	---	0.00	29.898 
02:50	11.6	11.6	11.6	75	5.2	0	0	---	0.00	29.898 
02:55	11.4	11.4	11.4	76	5.3	0	0	---	0.00	29.898 
03:00	11.2	11.2	11.2	76	5.1	0	0	---	0.00	29.897 
03:05	11.1	11.1	11.1	76	5.0	0	0	---	0.00	29.897 
03:10	10.7	10.7	10.7	76	4.7	0	0	---	0.00	29.897 
03:15	10.7	10.7	10.7	77	4.9	0	0	---	0.00	29.896 
03:20	10.5	10.5	10.5	77	4.7	0	0	---	0.00	29.896 
03:25	10.4	10.4	10.4	78	4.9	0	0	---	0.00	29.896 
03:30	10.2	10.2	10.2	78	4.7	0	0	---	0.00	29.891 
03:35	10.2	10.2	10.2	78	4.7	0	0	---	0.00	29.891 
03:40	10.2	10.2	10.2	78	4.7	0	0	---	0.00	29.891 
03:45	10.2	10.2	10.2	79	5.0	0	0	---	0.00	29.876 
03:50	10.5	10.5	10.5	79	5.3	0	0	---	0.00	29.876 
03:55	10.7	10.7	10.7	79	5.5	0	0	---	0.00	29.876 
04:00	11.1	11.1	11.1	80	6.2	0	0	---	0.00	29.858 
04:05	11.2	11.2	11.2	80	6.3	0	0	---	0.00	29.858 
04:10	11.4	11.4	11.4	80	6.5	0	0	---	0.00	29.858 
04:15	11.9	11.9	11.9	81	7.2	0	0	---	0.00	29.845 
04:20	12.3	12.3	12.3	81	7.6	0	0	---	0.00	29.845 
04:25	12.6	12.6	12.6	81	7.9	0	0	---	0.00	29.845 
04:30	12.9	12.9	12.9	81	8.2	0	0	---	0.00	29.840 
04:35	13.1	13.1	13.1	81	8.4	0	0	---	0.00	29.840 
04:40	13.1	13.1	13.1	81	8.4	0	0	---	0.00	29.840 
04:45	13.3	13.3	13.3	81	8.6	0	0	---	0.00	29.830 
04:50	13.1	13.1	13.1	81	8.4	0	0	---	0.00	29.830 
04:55	12.9	12.9	12.9	80	7.9	0	0	---	0.00	29.830 
05:00	12.8	12.8	12.8	80	7.8	0	0	---	0.00	29.808 
05:05	12.6	12.6	12.6	80	7.6	0	0	---	0.00	29.808 
05:10	12.4	12.4	12.4	80	7.4	0	0	---	0.00	29.808 
05:15	12.1	12.1	12.1	80	7.1	0	1	248	0.00	29.814 
05:20	11.9	11.9	11.9	80	6.9	0	0	---	0.00	29.814 
05:25	11.7	11.7	11.7	80	6.7	0	0	---	0.00	29.814 
05:30	11.6	11.6	11.6	80	6.6	0	0	---	0.00	29.811 
05:35	11.4	11.4	11.4	80	6.5	0	0	---	0.00	29.811 
05:40	11.1	11.1	11.1	80	6.2	0	0	---	0.00	29.811 
05:45	10.9	10.9	10.9	80	6.0	0	0	---	0.00	29.793 
05:50	10.7	10.7	10.7	80	5.8	0	0	---	0.00	29.793 
05:55	10.7	10.7	10.7	81	6.0	0	0	---	0.00	29.793 
06:00	11.1	11.1	11.1	81	6.4	0	0	---	0.00	29.801 
06:05	11.2	11.2	11.2	81	6.5	0	0	---	0.00	29.801 
06:10	11.6	11.6	11.6	82	7.2	0	0	---	0.00	29.801 
06:15	11.7	11.7	11.7	82	7.3	0	0	---	0.00	29.794 
06:20	12.1	12.1	12.1	82	7.7	0	0	---	0.00	29.794 
06:25	12.4	12.4	12.4	82	8.0	0	0	---	0.00	29.794 
06:30	12.6	12.6	12.6	82	8.2	0	0	---	0.00	29.778 
06:35	12.9	12.9	12.9	82	8.5	0	0	---	0.00	29.778 
06:40	13.1	13.1	13.1	82	8.7	0	0	---	0.00	29.778 
06:45	13.3	13.3	13.3	82	8.9	0	0	---	0.00	29.769 
06:50	13.6	13.6	13.6	82	9.1	0	0	---	0.00	29.769 
06:55	14.0	14.0	14.0	82	9.5	0	0	---	0.00	29.769 
07:00	14.1	14.1	14.1	82	9.6	0	0	---	0.00	29.763 
07:05	14.4	14.4	14.4	82	9.9	0	0	---	0.00	29.763 
07:10	14.6	14.6	14.6	81	9.9	0	0	---	0.00	29.763 
07:15	14.8	14.8	14.8	81	10.0	0	0	---	0.00	29.753 
07:20	15.1	15.1	15.1	81	10.3	0	1	248	0.00	29.753 
07:25	15.4	15.4	15.4	81	10.6	0	1	248	0.00	29.753 
07:30	15.6	15.6	15.6	81	10.8	0	1	248	0.00	29.748 
07:35	15.7	15.7	15.7	81	10.9	0	1	248	0.00	29.748 
07:40	15.9	15.9	15.9	81	11.1	0	1	248	0.00	29.748 
07:45	16.1	16.1	16.1	81	11.3	0	2	248	0.00	29.765 
07:50	16.4	16.4	16.4	80	11.3	1	2	90	0.00	29.765 
07:55	16.5	16.5	16.5	80	11.4	0	2	90	0.00	29.765 
08:00	16.9	16.9	16.9	80	11.8	0	1	90	0.00	29.759 
08:05	17.0	17.0	17.0	80	11.9	0	1	90	0.00	29.759 
08:10	17.0	17.0	17.0	80	11.9	0	0	---	0.00	29.759 
08:15	17.2	17.2	17.2	80	12.1	0	0	---	0.00	29.743 
08:20	17.3	17.3	17.3	80	12.2	0	0	---	0.00	29.743 
08:25	17.5	17.5	17.5	80	12.4	0	0	---	0.00	29.743 
08:30	17.7	17.7	17.7	80	12.6	0	0	---	0.00	29.732 
08:35	17.8	17.8	17.8	80	12.7	0	0	---	0.00	29.732 
08:40	18.0	18.0	18.0	81	13.2	0	0	---	0.00	29.732 
08:45	18.3	18.3	18.3	81	13.5	0	0	---	0.00	29.732 
08:50	18.4	18.4	18.4	81	13.6	0	0	---	0.00	29.732 
08:55	18.8	18.8	18.8	81	14.0	0	0	---	0.00	29.732 
09:00	18.9	18.9	18.9	82	14.3	0	1	90	0.00	29.716 
09:05	18.9	18.9	18.9	82	14.3	0	0	---	0.00	29.716 
09:10	19.2	19.2	19.2	83	14.9	0	1	90	0.00	29.716 
09:15	19.4	19.4	19.4	83	15.1	0	2	90	0.00	29.701 
09:20	19.5	19.5	19.5	84	15.5	0	2	90	0.00	29.701 
09:25	19.7	19.7	19.7	84	15.7	0	1	90	0.00	29.701 
09:30	19.9	19.9	19.9	84	15.9	0	2	90	0.00	29.702 
09:35	20.2	20.2	20.2	84	16.2	0	2	90	0.00	29.702 
09:40	20.3	20.3	20.3	84	16.3	1	3	90	0.00	29.702 
09:45	20.3	20.3	20.3	84	16.3	0	1	90	0.00	29.701 
09:50	20.3	20.3	20.3	84	16.3	0	2	90	0.00	29.701 
09:55	20.5	20.5	20.5	84	16.4	0	1	90	0.00	29.701 
10:00	20.6	20.6	20.6	84	16.5	0	1	90	0.00	29.690 
10:05	20.8	20.8	20.8	84	16.7	0	1	90	0.00	29.690 
10:10	21.0	21.0	21.0	84	16.9	0	0	---	0.00	29.690 
10:15	21.1	21.1	21.1	85	17.3	0	0	---	0.00	29.687 
10:20	21.4	21.4	21.4	85	17.6	0	0	---	0.00	29.687 
10:25	21.6	21.6	21.6	86	18.1	0	1	90	0.00	29.687 
10:30	21.9	21.9	21.9	86	18.4	0	0	---	0.00	29.679 
10:35	22.2	22.2	22.2	86	18.7	0	1	90	0.00	29.679 
10:40	22.2	22.2	22.2	86	18.7	0	2	90	0.00	29.679 
10:45	22.4	22.4	22.4	86	18.9	0	2	90	0.00	29.668 
10:50	22.4	22.4	22.4	86	18.9	0	1	90	0.00	29.668 
10:55	22.7	22.7	22.7	87	19.4	0	2	90	0.00	29.668 
11:00	22.9	22.9	22.9	87	19.6	0	2	90	0.00	29.666 
11:05	23.2	23.2	23.2	87	19.9	0	1	90	0.00	29.666 
11:10	23.5	23.5	23.5	87	20.2	0	0	---	0.00	29.666 
11:15	23.6	23.6	23.6	87	20.3	0	0	---	0.00	29.669 
11:20	23.6	23.6	23.6	87	20.3	0	1	90	0.00	29.669 
11:25	23.6	23.6	23.6	87	20.3	0	0	---	0.00	29.669 
11:30	23.8	23.8	23.8	87	20.5	0	0	---	0.00	29.672 
11:35	23.9	23.9	23.9	87	20.6	0	0	---	0.00	29.672 
11:40	23.9	23.9	23.9	87	20.6	0	0	---	0.00	29.672 
11:45	23.9	23.9	23.9	87	20.6	0	1	90	0.00	29.675 
11:50	23.9	23.9	23.9	87	20.6	0	0	---	0.00	29.675 
11:55	23.9	23.9	23.9	87	20.6	0	0	---	0.00	29.675 
12:00	23.9	23.9	23.9	87	20.6	0	0	---	0.00	29.668 
12:05	23.9	23.9	23.9	88	20.9	0	1	90	0.00	29.668 
12:10	23.9	23.9	23.9	88	20.9	0	1	90	0.00	29.668 
12:15	24.1	24.1	24.1	88	21.1	0	0	---	0.00	29.655 
12:20	24.1	24.1	24.1	88	21.1	0	3	45	0.00	29.655 
12:25	23.9	23.9	23.9	88	20.9	0	1	45	0.00	29.655 
12:30	23.8	23.8	23.8	88	20.8	0	2	22	0.00	29.648 
12:35	23.8	23.8	23.8	88	20.8	0	2	315	0.00	29.648 
12:40	23.8	23.8	23.8	87	20.5	0	2	315	0.00	29.648 
12:45	23.8	23.8	23.8	88	20.8	0	1	315	0.00	29.639 
12:50	23.8	23.8	23.8	88	20.8	0	2	315	0.00	29.639 
12:55	23.9	23.9	23.9	88	20.9	0	1	315	0.00	29.639 
13:00	24.1	24.1	24.1	87	20.8	0	1	315	0.00	29.632 
13:05	24.1	24.1	24.1	87	20.8	0	2	315	0.00	29.632 
13:10	24.1	24.1	24.1	87	20.8	0	1	315	0.00	29.632 
13:15	24.4	24.4	24.4	87	21.1	0	1	315	0.00	29.623 
13:20	24.5	24.5	24.5	87	21.2	0	1	315	0.00	29.623 
13:25	24.7	24.7	24.7	87	21.4	0	0	---	0.00	29.623 
13:30	24.7	24.7	24.7	86	21.1	0	2	315	0.00	29.619 
13:35	24.7	24.7	24.7	86	21.1	0	1	315	0.00	29.619 
13:40	24.8	24.8	24.8	86	21.2	0	1	315	0.00	29.619 
13:45	25.0	25.0	25.0	86	21.4	0	1	315	0.00	29.611 
13:50	25.1	25.1	25.1	86	21.5	0	1	315	0.00	29.611 
13:55	25.1	25.1	25.1	86	21.5	0	2	315	0.00	29.611 
14:00	25.3	25.3	25.3	86	21.7	0	1	292	0.00	29.610 
14:05	25.4	25.4	25.4	86	21.8	0	2	292	0.00	29.610 
14:10	25.6	25.6	25.6	86	22.0	0	1	292	0.00	29.610 
14:15	25.7	25.7	25.7	86	22.1	0	1	292	0.00	29.614 
14:20	26.1	26.1	26.1	86	22.5	0	1	292	0.00	29.614 
14:25	26.4	26.4	26.4	86	22.8	0	1	292	0.00	29.614 
14:30	26.6	26.6	26.6	86	23.0	1	2	292	0.00	29.621 
14:35	26.9	26.9	26.9	86	23.3	0	2	292	0.00	29.621 
14:40	26.9	26.9	26.9	85	23.0	0	2	292	0.00	29.621 
14:45	26.7	26.7	26.7	85	22.8	1	2	292	0.00	29.623 
14:50	26.9	26.9	26.9	85	23.0	0	2	292	0.00	29.623 
14:55	27.0	27.0	27.0	85	23.1	0	2	292	0.00	29.623 
15:00	26.9	26.9	26.9	85	23.0	1	2	292	0.00	29.629 
15:05	27.0	27.0	27.0	86	23.4	1	2	292	0.00	29.629 
15:10	27.0	27.0	27.0	86	23.4	1	2	292	0.00	29.629 
15:15	26.9	26.9	26.9	86	23.3	1	2	292	0.00	29.639 
15:20	26.7	26.7	26.7	86	23.1	1	3	292	0.00	29.639 
15:25	26.7	26.7	26.7	86	23.1	1	3	292	0.00	29.639 
15:30	26.7	26.7	26.7	86	23.1	1	2	292	0.00	29.647 
15:35	26.7	26.7	26.7	86	23.1	1	2	292	0.00	29.647 
15:40	26.7	26.7	26.7	87	23.4	1	2	292	0.00	29.647 
15:45	26.7	26.7	26.7	87	23.4	1	2	292	0.00	29.653 
15:50	26.6	26.6	26.6	87	23.3	1	4	292	0.00	29.653 
15:55	26.7	26.7	26.7	87	23.4	1	2	292	0.00	29.653 
16:00	26.7	26.7	26.7	88	23.6	0	2	292	0.00	29.664 
16:05	26.7	26.7	26.7	88	23.6	1	2	292	0.00	29.664 
16:10	26.7	26.7	26.7	88	23.6	1	2	292	0.00	29.664 
16:15	26.7	26.7	26.7	88	23.6	1	2	292	0.00	29.670 
16:20	26.9	26.9	26.9	88	23.8	1	3	248	0.00	29.670 
16:25	26.9	26.9	26.9	88	23.8	1	3	248	0.00	29.670 
16:30	27.0	27.0	27.0	88	23.9	1	3	248	0.00	29.676 
16:35	27.0	27.0	27.0	88	23.9	0	2	248	0.00	29.676 
16:40	27.2	27.2	27.2	88	24.1	1	2	248	0.00	29.676 
16:45	27.3	27.3	27.3	89	24.5	1	3	248	0.00	29.682 
16:50	27.3	27.3	27.3	88	24.2	1	2	248	0.00	29.682 
16:55	27.3	27.3	27.3	88	24.2	1	3	248	0.00	29.682 
17:00	27.2	27.2	27.2	88	24.1	1	2	248	0.00	29.693 
17:05	26.9	26.9	26.9	88	23.8	1	2	248	0.00	29.693 
17:10	26.7	26.7	26.7	88	23.6	1	2	248	0.00	29.693 
17:15	26.7	26.7	26.7	88	23.6	1	3	248	0.00	29.697 
17:20	26.7	26.7	26.7	88	23.6	1	3	248	0.00	29.697 
17:25	26.6	26.6	26.6	88	23.5	1	5	248	0.00	29.697 
17:30	26.3	26.3	26.3	88	23.2	1	3	248	0.00	29.707 
17:35	26.1	26.1	26.1	88	23.0	0	2	248	0.00	29.707 
17:40	26.0	26.0	26.0	88	22.9	1	3	248	0.00	29.707 
17:45	25.8	25.8	25.8	88	22.7	1	2	248	0.00	29.719 
17:50	25.7	25.7	25.7	88	22.6	1	3	248	0.00	29.719 
17:55	25.6	25.6	25.6	88	22.5	1	2	248	0.00	29.719 
18:00	25.6	25.6	25.6	88	22.5	1	4	248	0.00	29.727 
18:05	25.4	25.4	25.4	88	22.4	0	2	248	0.00	29.727 
18:10	25.3	25.3	25.3	88	22.3	1	2	248	0.00	29.727 
18:15	24.8	24.8	24.8	88	21.8	1	3	248	0.00	29.722 
18:20	24.7	24.7	24.7	88	21.7	0	3	248	0.00	29.722 
18:25	24.4	24.4	24.4	88	21.4	0	2	248	0.00	29.722 
18:30	24.2	24.2	24.2	88	21.2	1	2	248	0.00	29.743 
18:35	24.1	24.1	24.1	88	21.1	0	2	248	0.00	29.743 
18:40	24.2	24.2	24.2	88	21.2	1	2	248	0.00	29.743 
18:45	24.2	24.2	24.2	88	21.2	1	3	248	0.00	29.758 
18:50	24.1	24.1	24.1	88	21.1	1	4	248	0.00	29.758 
18:55	24.1	24.1	24.1	88	21.1	1	4	248	0.00	29.758 
19:00	23.9	23.9	23.9	88	20.9	1	3	248	0.00	29.761 
19:05	23.9	23.9	23.9	88	20.9	1	4	248	0.00	29.761 
19:10	23.8	23.8	23.8	88	20.8	1	5	248	0.00	29.761 
19:15	23.6	23.6	23.6	88	20.6	1	4	248	0.00	29.762 
19:20	23.6	23.6	23.6	88	20.6	2	4	248	0.00	29.762 
19:25	23.5	23.5	23.5	88	20.5	1	4	248	0.00	29.762 
19:30	23.5	23.5	23.5	88	20.5	1	3	248	0.00	29.762 
19:35	23.3	23.3	23.3	88	20.3	1	3	248	0.00	29.762 
19:40	23.2	23.2	23.2	88	20.2	2	5	248	0.00	29.762 
19:45	23.2	23.2	23.2	88	20.2	2	6	248	0.00	29.777 
19:50	23.0	23.0	23.0	88	20.0	1	6	248	0.00	29.777 
19:55	22.9	22.9	22.9	87	19.6	2	4	248	0.00	29.777 
20:00	22.5	22.5	22.5	87	19.2	1	3	248	0.00	29.778 
20:05	22.4	22.4	22.4	87	19.1	0	2	248	0.00	29.778 
20:10	22.1	22.1	22.1	87	18.8	1	3	248	0.00	29.778 
20:15	21.9	21.9	21.9	88	18.9	1	2	248	0.00	29.781 
20:20	21.9	21.9	21.9	88	18.9	1	3	248	0.00	29.781 
20:25	21.8	21.8	21.8	88	18.8	0	2	248	0.00	29.781 
20:30	21.6	21.6	21.6	88	18.6	1	2	248	0.00	29.791 
20:35	21.6	21.6	21.6	88	18.6	1	2	248	0.00	29.791 
20:40	21.6	21.6	21.6	88	18.6	1	3	248	0.00	29.791 
20:45	21.4	21.4	21.4	88	18.4	1	2	248	0.00	29.797 
20:50	21.6	21.6	21.6	88	18.6	1	4	248	0.00	29.797 
20:55	21.8	21.8	21.8	89	19.1	1	5	248	0.00	29.797 
21:00	22.2	22.2	22.2	89	19.5	1	4	248	0.00	29.809 
21:05	22.4	22.4	22.4	89	19.7	2	4	248	0.00	29.809 
21:10	22.5	22.5	22.5	89	19.8	1	4	248	0.00	29.809 
21:15	22.7	22.7	22.7	89	20.0	1	3	248	0.00	29.814 
21:20	22.7	22.7	22.7	89	20.0	2	4	248	0.00	29.814 
21:25	22.9	22.9	22.9	89	20.2	1	4	248	0.00	29.814 
21:30	23.0	23.0	23.0	89	20.3	2	5	248	0.00	29.812 
21:35	23.2	23.2	23.2	89	20.4	1	4	248	0.00	29.812 
21:40	23.2	23.2	23.2	90	20.7	1	3	248	0.00	29.812 
21:45	23.3	23.3	23.3	90	20.8	1	3	248	0.00	29.820 
21:50	23.5	23.5	23.5	90	21.0	1	4	248	0.00	29.820 
21:55	23.6	23.6	23.6	90	21.1	1	2	248	0.00	29.820 
22:00	23.8	23.8	23.8	90	21.3	2	4	248	0.00	29.823 
22:05	23.9	23.9	23.9	90	21.4	2	5	248	0.00	29.823 
22:10	23.9	23.9	23.9	90	21.4	2	4	248	0.00	29.823 
22:15	23.9	23.9	23.9	89	21.1	2	6	248	0.00	29.833 
22:20	23.9	23.9	23.9	89	21.1	2	4	248	0.00	29.833 
22:25	23.9	23.9	23.9	89	21.1	1	4	248	0.00	29.833 
22:30	23.9	23.9	23.9	89	21.1	2	4	270	0.00	29.835 
22:35	23.8	23.8	23.8	89	21.0	2	5	248	0.00	29.835 
22:40	23.8	23.8	23.8	89	21.0	3	7	248	0.00	29.835 
22:45	23.8	23.8	23.8	89	21.0	3	7	248	0.00	29.845 
22:50	23.8	23.8	23.8	89	21.0	2	4	248	0.00	29.845 
22:55	23.8	23.8	23.8	89	21.0	3	6	270	0.00	29.845 
23:00	23.8	23.8	23.8	89	21.0	2	5	270	0.00	29.850 
23:05	23.9	23.9	23.9	89	21.1	2	5	248	0.00	29.850 
23:10	23.9	23.9	23.9	88	20.9	2	4	248	0.00	29.850 
23:15	24.1	24.1	24.1	88	21.1	2	3	248	0.00	29.852 
23:20	24.1	24.1	24.1	88	21.1	1	4	248	0.00	29.852 
23:25	24.2	24.2	24.2	88	21.2	0	2	248	0.00	29.852 
23:30	24.2	24.2	24.2	88	21.2	1	5	248	0.00	29.861 
23:35	24.2	24.2	24.2	88	21.2	1	3	248	0.00	29.861 
23:40	24.4	24.4	24.4	88	21.4	1	2	248	0.00	29.861 
23:45	24.4	24.4	24.4	88	21.4	1	2	248	0.00	29.864 
23:50	24.4	24.4	24.4	88	21.4	2	4	248	0.00	29.864 
23:55	24.5	24.5	24.5	89	21.7	1	3	248	0.00	29.864 

CoCoRaHS
IN-AL-39
A2 Web Hosting
Creative Commons License
GoDaddy
search engine by freefind advanced

loaded 2018-11-17 06:57:43 • last modified 2010-11-18 10:43:29
Privacy PolicyDisclaimer
• wx.awcolley.com is powered by PmWiki v.2002016 •
• all content (unless otherwise noted) © 2018 A W Colley